Time;durP1;ratioP1;P1;durP2;ratioP2;P2;SDS_P1;SDS_P2;PMS_P1;PMS_P2;Temp;Humidity;BMP_temperature;BMP_pressure;BME280_temperature;BME280_humidity;BME280_pressure;Samples;Min_cycle;Max_cycle;Signal;HPM_P1;HPM_P2
2021/12/30 00:01:10;;;;;;;0.70;0.70;;;;;;;;;;5007896;28;20209;-63
2021/12/30 00:03:37;;;;;;;0.67;0.67;;;;;;;;;;5007431;28;20208;-62
2021/12/30 00:06:05;;;;;;;0.70;0.70;;;;;;;;;;5007894;28;20205;-63
2021/12/30 00:08:34;;;;;;;0.47;0.40;;;;;;;;;;4997961;28;20206;-63
2021/12/30 00:11:01;;;;;;;0.53;0.53;;;;;;;;;;5011902;28;20213;-63
2021/12/30 00:13:28;;;;;;;1.43;1.20;;;;;;;;;;5011864;28;20212;-62
2021/12/30 00:15:55;;;;;;;0.63;0.53;;;;;;;;;;5007314;28;20205;-63
2021/12/30 00:18:23;;;;;;;1.00;0.60;;;;;;;;;;5008592;28;20676;-62
2021/12/30 00:20:50;;;;;;;2.40;0.63;;;;;;;;;;5011469;28;20283;-62
2021/12/30 00:23:17;;;;;;;0.30;0.30;;;;;;;;;;5011411;28;20283;-63
2021/12/30 00:25:45;;;;;;;0.40;0.40;;;;;;;;;;5011447;28;20229;-63
2021/12/30 00:28:14;;;;;;;2.13;0.50;;;;;;;;;;5011425;28;20213;-65
2021/12/30 00:30:41;;;;;;;1.53;0.50;;;;;;;;;;5011580;28;20213;-62
2021/12/30 00:33:08;;;;;;;0.60;0.60;;;;;;;;;;5011582;28;20815;-62
2021/12/30 00:35:35;;;;;;;0.47;0.30;;;;;;;;;;5010773;28;20212;-62
2021/12/30 00:38:03;;;;;;;0.37;0.37;;;;;;;;;;5010151;28;20678;-63
2021/12/30 00:40:30;;;;;;;0.37;0.23;;;;;;;;;;5011064;28;20205;-63
2021/12/30 00:42:59;;;;;;;0.20;0.20;;;;;;;;;;5011374;28;20212;-62
2021/12/30 00:45:27;;;;;;;0.20;0.20;;;;;;;;;;5010447;28;20324;-62
2021/12/30 00:47:54;;;;;;;0.57;0.40;;;;;;;;;;5011167;28;20220;-63
2021/12/30 00:50:21;;;;;;;0.33;0.20;;;;;;;;;;5010300;28;20243;-62
2021/12/30 00:52:48;;;;;;;0.20;0.20;;;;;;;;;;5000331;28;20209;-63
2021/12/30 00:55:15;;;;;;;1.07;0.30;;;;;;;;;;5010911;28;20208;-62
2021/12/30 00:57:42;;;;;;;0.20;0.20;;;;;;;;;;5011014;28;20207;-63
2021/12/30 01:00:13;;;;;;;0.20;0.20;;;;;;;;;;5009532;28;20212;-63
2021/12/30 01:02:41;;;;;;;1.87;0.20;;;;;;;;;;4997552;28;20213;-62
2021/12/30 01:05:08;;;;;;;0.20;0.20;;;;;;;;;;4997156;28;20241;-63
2021/12/30 01:07:35;;;;;;;4.53;0.20;;;;;;;;;;4999920;28;20213;-63
2021/12/30 01:10:03;;;;;;;0.40;0.30;;;;;;;;;;5000635;28;20220;-63
2021/12/30 01:12:30;;;;;;;0.47;0.10;;;;;;;;;;4996691;28;20221;-63
2021/12/30 01:14:57;;;;;;;0.63;0.40;;;;;;;;;;5001580;28;20201;-63
2021/12/30 01:17:39;;;;;;;3.00;0.50;;;;;;;;;;4998083;28;20681;-63
2021/12/30 01:20:07;;;;;;;0.20;0.20;;;;;;;;;;4998120;28;20210;-63
2021/12/30 01:22:34;;;;;;;0.20;0.20;;;;;;;;;;5001148;28;20784;-63
2021/12/30 01:25:01;;;;;;;1.23;0.23;;;;;;;;;;4998720;28;20606;-63
2021/12/30 01:27:28;;;;;;;0.20;0.20;;;;;;;;;;4995904;28;20229;-63
2021/12/30 01:29:56;;;;;;;3.60;0.50;;;;;;;;;;4996465;28;20212;-63
2021/12/30 01:32:25;;;;;;;3.40;0.27;;;;;;;;;;4997144;28;20206;-63
2021/12/30 01:34:52;;;;;;;2.30;0.40;;;;;;;;;;4998136;28;20198;-64
2021/12/30 01:37:22;;;;;;;0.93;0.30;;;;;;;;;;5000088;28;20209;-63
2021/12/30 01:39:49;;;;;;;0.50;0.50;;;;;;;;;;5000071;28;20201;-63
2021/12/30 01:42:16;;;;;;;4.17;0.33;;;;;;;;;;5000511;28;20209;-62
2021/12/30 01:44:43;;;;;;;1.20;0.20;;;;;;;;;;5002280;28;20232;-63
2021/12/30 01:47:10;;;;;;;2.70;0.57;;;;;;;;;;4998793;28;20216;-63
2021/12/30 01:49:39;;;;;;;3.40;0.40;;;;;;;;;;5004260;28;20661;-63
2021/12/30 01:52:06;;;;;;;1.00;0.40;;;;;;;;;;4999319;28;20288;-63
2021/12/30 01:54:34;;;;;;;2.73;0.53;;;;;;;;;;5002504;28;20251;-64
2021/12/30 01:57:05;;;;;;;0.90;0.53;;;;;;;;;;4998915;28;20205;-63
2021/12/30 01:59:32;;;;;;;1.43;0.50;;;;;;;;;;5000601;28;20205;-63
2021/12/30 02:02:00;;;;;;;0.30;0.30;;;;;;;;;;4996835;28;20279;-64
2021/12/30 02:04:27;;;;;;;3.70;0.50;;;;;;;;;;4998859;28;20307;-63
2021/12/30 02:06:56;;;;;;;2.47;0.70;;;;;;;;;;4998760;28;20213;-63
2021/12/30 02:09:23;;;;;;;0.40;0.40;;;;;;;;;;5000485;28;20208;-63
2021/12/30 02:11:50;;;;;;;1.60;0.57;;;;;;;;;;5000370;28;20301;-63
2021/12/30 02:14:18;;;;;;;0.30;0.30;;;;;;;;;;4998913;28;20676;-66
2021/12/30 02:16:45;;;;;;;0.43;0.43;;;;;;;;;;5000386;28;20210;-62
2021/12/30 02:19:12;;;;;;;0.50;0.50;;;;;;;;;;4998139;28;20216;-62
2021/12/30 02:21:41;;;;;;;0.40;0.40;;;;;;;;;;4996254;28;20216;-63
2021/12/30 02:24:08;;;;;;;0.60;0.47;;;;;;;;;;4997617;28;20218;-63
2021/12/30 02:26:35;;;;;;;0.33;0.33;;;;;;;;;;4997556;28;20263;-63
2021/12/30 02:29:02;;;;;;;4.83;1.20;;;;;;;;;;4999357;28;20218;-63
2021/12/30 02:31:30;;;;;;;2.20;0.37;;;;;;;;;;4996773;28;20212;-63
2021/12/30 02:33:57;;;;;;;3.90;0.63;;;;;;;;;;5000154;28;20216;-63
2021/12/30 02:36:26;;;;;;;2.30;0.37;;;;;;;;;;4998768;28;20201;-63
2021/12/30 02:38:54;;;;;;;0.63;0.40;;;;;;;;;;4999179;28;20206;-63
2021/12/30 02:41:21;;;;;;;4.03;0.33;;;;;;;;;;5000862;28;20204;-64
2021/12/30 02:43:49;;;;;;;0.30;0.17;;;;;;;;;;4996739;28;20212;-64
2021/12/30 02:46:17;;;;;;;0.10;0.10;;;;;;;;;;4998904;28;20646;-64
2021/12/30 02:48:44;;;;;;;0.30;0.30;;;;;;;;;;4997213;28;20212;-64
2021/12/30 02:51:12;;;;;;;0.23;0.23;;;;;;;;;;5001537;28;20658;-64
2021/12/30 02:53:40;;;;;;;0.57;0.40;;;;;;;;;;4999347;28;20297;-63
2021/12/30 02:56:08;;;;;;;1.63;0.23;;;;;;;;;;4998477;28;20272;-64
2021/12/30 02:58:35;;;;;;;0.30;0.30;;;;;;;;;;4997093;28;20676;-64
2021/12/30 03:01:05;;;;;;;1.80;0.50;;;;;;;;;;4999233;28;20688;-63
2021/12/30 03:03:32;;;;;;;1.07;0.20;;;;;;;;;;4999529;28;20252;-63
2021/12/30 03:06:00;;;;;;;1.13;0.57;;;;;;;;;;4997948;28;20221;-63
2021/12/30 03:08:28;;;;;;;1.90;0.50;;;;;;;;;;4998215;28;20284;-64
2021/12/30 03:10:55;;;;;;;0.20;0.20;;;;;;;;;;5001268;28;20594;-64
2021/12/30 03:13:30;;;;;;;0.20;0.20;;;;;;;;;;5002182;28;20206;-64
2021/12/30 03:15:57;;;;;;;2.63;0.60;;;;;;;;;;5003283;28;20196;-63
2021/12/30 03:18:24;;;;;;;0.27;0.20;;;;;;;;;;5003930;28;20205;-64
2021/12/30 03:20:51;;;;;;;1.87;0.43;;;;;;;;;;5002278;28;20220;-64
2021/12/30 03:23:18;;;;;;;0.97;0.37;;;;;;;;;;5002133;28;20224;-63
2021/12/30 03:25:45;;;;;;;0.33;0.33;;;;;;;;;;5001226;28;20224;-64
2021/12/30 03:28:12;;;;;;;0.90;0.30;;;;;;;;;;5004264;28;20201;-64
2021/12/30 03:30:41;;;;;;;1.93;0.20;;;;;;;;;;5003003;28;20205;-63
2021/12/30 03:33:08;;;;;;;0.57;0.10;;;;;;;;;;5002304;28;20209;-63
2021/12/30 03:35:35;;;;;;;0.87;0.50;;;;;;;;;;5001294;28;20893;-63
2021/12/30 03:38:02;;;;;;;0.73;0.33;;;;;;;;;;5004114;28;20217;-63
2021/12/30 03:40:29;;;;;;;0.30;0.30;;;;;;;;;;5005316;28;20205;-63
2021/12/30 03:42:56;;;;;;;0.47;0.33;;;;;;;;;;5004871;28;20227;-63
2021/12/30 03:45:23;;;;;;;0.63;0.20;;;;;;;;;;5002765;28;20265;-64
2021/12/30 03:47:52;;;;;;;1.67;0.70;;;;;;;;;;5006135;28;20267;-64
2021/12/30 03:50:21;;;;;;;0.20;0.20;;;;;;;;;;5001611;28;20268;-63
2021/12/30 03:52:49;;;;;;;0.17;0.17;;;;;;;;;;5005675;28;20629;-64
2021/12/30 03:55:16;;;;;;;1.20;0.47;;;;;;;;;;5007762;28;20208;-64
2021/12/30 03:57:43;;;;;;;1.70;0.30;;;;;;;;;;5006271;28;20205;-64
2021/12/30 04:00:11;;;;;;;0.90;0.23;;;;;;;;;;5004089;28;20216;-64
2021/12/30 04:02:38;;;;;;;1.50;0.20;;;;;;;;;;5001621;28;20240;-64
2021/12/30 04:05:08;;;;;;;1.70;0.17;;;;;;;;;;5000072;28;20224;-64
2021/12/30 04:07:36;;;;;;;0.83;0.30;;;;;;;;;;4998139;28;20202;-63
2021/12/30 04:10:03;;;;;;;0.20;0.20;;;;;;;;;;5000700;28;20208;-64
2021/12/30 04:12:30;;;;;;;1.03;0.30;;;;;;;;;;5002035;28;20210;-63
2021/12/30 04:14:57;;;;;;;0.97;0.40;;;;;;;;;;5003056;28;20217;-63
2021/12/30 04:17:24;;;;;;;5.10;0.60;;;;;;;;;;5005796;28;20232;-64
2021/12/30 04:19:51;;;;;;;0.97;0.40;;;;;;;;;;5002646;28;20588;-63
2021/12/30 04:22:19;;;;;;;0.23;0.23;;;;;;;;;;5007046;28;20707;-63
2021/12/30 04:24:46;;;;;;;1.53;0.50;;;;;;;;;;5000088;28;20668;-63
2021/12/30 04:27:13;;;;;;;0.40;0.40;;;;;;;;;;5001059;28;20260;-63
2021/12/30 04:29:41;;;;;;;5.10;0.40;;;;;;;;;;5002138;28;20271;-63
2021/12/30 04:32:08;;;;;;;0.40;0.40;;;;;;;;;;5001115;28;20201;-64
2021/12/30 04:34:35;;;;;;;0.40;0.13;;;;;;;;;;5001386;28;20291;-63
2021/12/30 04:37:02;;;;;;;0.77;0.50;;;;;;;;;;5001405;28;20210;-63
2021/12/30 04:39:31;;;;;;;0.20;0.20;;;;;;;;;;4999208;28;20205;-63
2021/12/30 04:42:01;;;;;;;5.57;0.40;;;;;;;;;;5001643;28;20206;-64
2021/12/30 04:44:28;;;;;;;1.17;0.23;;;;;;;;;;5005133;28;20216;-64
2021/12/30 04:46:55;;;;;;;1.50;0.40;;;;;;;;;;5005259;28;20235;-64
2021/12/30 04:49:22;;;;;;;0.40;0.20;;;;;;;;;;5003701;28;20233;-63
2021/12/30 04:51:49;;;;;;;1.30;0.20;;;;;;;;;;5003467;28;20240;-63
2021/12/30 04:54:27;;;;;;;0.60;0.60;;;;;;;;;;5003219;28;20213;-64
2021/12/30 04:56:55;;;;;;;1.67;0.40;;;;;;;;;;5003176;28;20205;-63
2021/12/30 04:59:22;;;;;;;5.13;0.60;;;;;;;;;;5004838;28;20205;-63
2021/12/30 05:01:50;;;;;;;0.70;0.50;;;;;;;;;;5003958;28;20209;-63
2021/12/30 05:04:17;;;;;;;3.37;0.40;;;;;;;;;;5003313;28;22045;-63
2021/12/30 05:06:44;;;;;;;0.40;0.40;;;;;;;;;;5004178;28;20324;-63
2021/12/30 05:09:11;;;;;;;1.03;0.47;;;;;;;;;;5004508;28;20625;-64
2021/12/30 05:11:41;;;;;;;0.70;0.40;;;;;;;;;;5003400;28;20209;-64
2021/12/30 05:14:10;;;;;;;1.13;0.47;;;;;;;;;;5003480;28;20205;-66
2021/12/30 05:16:37;;;;;;;0.97;0.40;;;;;;;;;;5004622;28;20201;-63
2021/12/30 05:19:04;;;;;;;1.37;0.50;;;;;;;;;;5004345;28;20231;-63
2021/12/30 05:21:31;;;;;;;1.17;0.50;;;;;;;;;;5003663;28;20216;-63
2021/12/30 05:23:59;;;;;;;1.33;0.53;;;;;;;;;;5002842;28;20295;-63
2021/12/30 05:26:27;;;;;;;0.47;0.47;;;;;;;;;;5003868;28;20224;-63
2021/12/30 05:28:55;;;;;;;0.23;0.23;;;;;;;;;;5005567;28;20212;-63
2021/12/30 05:31:23;;;;;;;0.80;0.40;;;;;;;;;;5002472;28;20769;-63
2021/12/30 05:33:50;;;;;;;0.60;0.60;;;;;;;;;;5003053;28;20213;-64
2021/12/30 05:36:17;;;;;;;0.63;0.53;;;;;;;;;;5002978;28;20206;-63
2021/12/30 05:38:44;;;;;;;1.70;0.40;;;;;;;;;;5002948;28;21926;-63
2021/12/30 05:41:11;;;;;;;0.60;0.47;;;;;;;;;;5004016;28;20590;-63
2021/12/30 05:43:38;;;;;;;1.93;0.83;;;;;;;;;;5002860;28;20209;-63
2021/12/30 05:46:05;;;;;;;1.00;0.50;;;;;;;;;;5003608;28;20237;-63
2021/12/30 05:48:34;;;;;;;1.83;0.60;;;;;;;;;;5002070;28;20213;-63
2021/12/30 05:51:01;;;;;;;0.97;0.57;;;;;;;;;;5003785;28;20241;-63
2021/12/30 05:53:28;;;;;;;1.63;0.30;;;;;;;;;;5002500;28;20210;-63
2021/12/30 05:55:55;;;;;;;0.90;0.70;;;;;;;;;;5002080;28;20201;-63
2021/12/30 05:58:22;;;;;;;0.50;0.50;;;;;;;;;;5003275;28;20205;-62
2021/12/30 06:00:50;;;;;;;1.60;0.70;;;;;;;;;;5004099;28;20212;-63
2021/12/30 06:03:19;;;;;;;0.50;0.50;;;;;;;;;;5002106;28;20290;-63
2021/12/30 06:05:47;;;;;;;0.50;0.50;;;;;;;;;;5002388;28;20304;-63
2021/12/30 06:08:14;;;;;;;0.60;0.60;;;;;;;;;;5002228;28;20209;-62
2021/12/30 06:10:42;;;;;;;0.30;0.30;;;;;;;;;;5002479;28;22055;-62
2021/12/30 06:13:10;;;;;;;0.53;0.53;;;;;;;;;;5002195;28;20213;-63
2021/12/30 06:15:37;;;;;;;0.70;0.70;;;;;;;;;;5001838;28;20216;-63
2021/12/30 06:18:04;;;;;;;0.30;0.30;;;;;;;;;;5001667;28;20205;-63
2021/12/30 06:20:31;;;;;;;1.07;0.57;;;;;;;;;;5001444;28;20212;-63
2021/12/30 06:22:59;;;;;;;2.40;0.43;;;;;;;;;;5003543;28;20213;-63
2021/12/30 06:25:27;;;;;;;3.70;0.50;;;;;;;;;;5001084;28;20239;-63
2021/12/30 06:27:54;;;;;;;1.47;0.50;;;;;;;;;;5000831;28;20213;-63
2021/12/30 06:30:21;;;;;;;0.87;0.87;;;;;;;;;;5001388;28;20267;-63
2021/12/30 06:32:48;;;;;;;0.50;0.50;;;;;;;;;;5002709;28;20205;-63
2021/12/30 06:35:15;;;;;;;4.20;0.50;;;;;;;;;;4999962;28;21512;-62
2021/12/30 06:37:42;;;;;;;0.97;0.60;;;;;;;;;;5001891;28;20230;-63
2021/12/30 06:40:12;;;;;;;1.67;0.77;;;;;;;;;;5001248;28;20208;-63
2021/12/30 06:42:41;;;;;;;1.93;0.63;;;;;;;;;;5003162;28;20209;-63
2021/12/30 06:45:08;;;;;;;2.63;0.77;;;;;;;;;;5007188;28;20283;-63
2021/12/30 06:47:35;;;;;;;2.53;0.67;;;;;;;;;;5005433;28;20232;-63
2021/12/30 06:50:02;;;;;;;0.63;0.40;;;;;;;;;;5005158;28;20248;-63
2021/12/30 06:52:30;;;;;;;0.47;0.47;;;;;;;;;;5005826;28;20219;-63
2021/12/30 06:54:57;;;;;;;0.60;0.60;;;;;;;;;;5006647;28;20213;-63
2021/12/30 06:57:25;;;;;;;0.50;0.50;;;;;;;;;;5006182;28;20201;-63
2021/12/30 06:59:52;;;;;;;0.43;0.43;;;;;;;;;;5006866;28;20700;-63
2021/12/30 07:02:19;;;;;;;0.30;0.30;;;;;;;;;;5005719;28;20209;-63
2021/12/30 07:04:46;;;;;;;1.87;0.43;;;;;;;;;;5007066;28;20698;-63
2021/12/30 07:07:13;;;;;;;0.93;0.63;;;;;;;;;;5005792;28;20295;-62
2021/12/30 07:09:40;;;;;;;0.60;0.60;;;;;;;;;;5005193;28;20205;-62
2021/12/30 07:12:08;;;;;;;0.40;0.40;;;;;;;;;;5005754;28;20213;-63
2021/12/30 07:14:36;;;;;;;0.40;0.40;;;;;;;;;;5007027;28;20212;-62
2021/12/30 07:17:04;;;;;;;0.33;0.33;;;;;;;;;;5005117;28;20202;-64
2021/12/30 07:19:31;;;;;;;0.53;0.47;;;;;;;;;;5004999;28;20208;-64
2021/12/30 07:21:58;;;;;;;1.53;0.30;;;;;;;;;;5005562;28;20224;-63
2021/12/30 07:24:25;;;;;;;0.40;0.40;;;;;;;;;;5004357;28;20727;-62
2021/12/30 07:26:52;;;;;;;0.33;0.33;;;;;;;;;;5004327;28;20723;-63
2021/12/30 07:29:20;;;;;;;0.30;0.30;;;;;;;;;;5004906;28;20205;-63
2021/12/30 07:31:49;;;;;;;0.23;0.23;;;;;;;;;;5005028;28;20208;-63
2021/12/30 07:34:16;;;;;;;0.37;0.37;;;;;;;;;;5005264;28;20205;-63
2021/12/30 07:36:43;;;;;;;0.30;0.30;;;;;;;;;;5007706;28;20205;-63
2021/12/30 07:39:10;;;;;;;1.13;0.40;;;;;;;;;;5003932;28;20593;-63
2021/12/30 07:41:37;;;;;;;0.40;0.40;;;;;;;;;;5004440;28;20956;-63
2021/12/30 07:44:04;;;;;;;0.30;0.30;;;;;;;;;;5005088;28;20213;-63
2021/12/30 07:46:32;;;;;;;0.13;0.13;;;;;;;;;;5005575;28;20224;-63
2021/12/30 07:49:00;;;;;;;0.10;0.10;;;;;;;;;;5004925;28;20300;-63
2021/12/30 07:51:27;;;;;;;0.20;0.20;;;;;;;;;;5004771;28;20241;-63
2021/12/30 07:53:54;;;;;;;0.10;0.10;;;;;;;;;;5004261;28;20271;-62
2021/12/30 07:56:21;;;;;;;0.10;0.10;;;;;;;;;;5005142;28;20197;-64
2021/12/30 07:58:48;;;;;;;0.20;0.20;;;;;;;;;;5006066;28;20228;-62
2021/12/30 08:01:15;;;;;;;0.10;0.10;;;;;;;;;;5004137;28;20209;-63
2021/12/30 08:03:42;;;;;;;0.10;0.10;;;;;;;;;;5005519;28;20213;-63
2021/12/30 08:06:11;;;;;;;0.10;0.10;;;;;;;;;;5004863;28;20213;-63
2021/12/30 08:08:39;;;;;;;0.10;0.10;;;;;;;;;;5004699;28;20201;-64
2021/12/30 08:11:06;;;;;;;0.20;0.20;;;;;;;;;;5004914;28;20288;-63
2021/12/30 08:13:33;;;;;;;0.13;0.13;;;;;;;;;;5004476;28;20201;-63
2021/12/30 08:16:00;;;;;;;0.40;0.40;;;;;;;;;;5004940;28;20205;-63
2021/12/30 08:18:27;;;;;;;0.40;0.40;;;;;;;;;;5006599;28;20201;-64
2021/12/30 08:20:56;;;;;;;0.53;0.17;;;;;;;;;;5004631;28;20212;-63
2021/12/30 08:23:24;;;;;;;0.20;0.20;;;;;;;;;;5004466;28;20220;-63
2021/12/30 08:25:52;;;;;;;0.27;0.27;;;;;;;;;;5004856;28;20209;-64
2021/12/30 08:28:21;;;;;;;0.20;0.20;;;;;;;;;;5003155;28;20232;-64
2021/12/30 08:30:48;;;;;;;0.30;0.30;;;;;;;;;;5000571;28;20292;-63
2021/12/30 08:33:15;;;;;;;0.00;0.00;;;;;;;;;;5005106;28;20212;-63
2021/12/30 08:35:42;;;;;;;0.13;0.13;;;;;;;;;;5004327;28;20204;-63
2021/12/30 08:38:09;;;;;;;0.20;0.20;;;;;;;;;;5004731;28;20213;-63
2021/12/30 08:40:38;;;;;;;0.03;0.03;;;;;;;;;;5004698;28;20213;-63
2021/12/30 08:43:06;;;;;;;0.10;0.10;;;;;;;;;;5001981;28;20220;-65
2021/12/30 08:45:33;;;;;;;0.10;0.10;;;;;;;;;;5004601;28;20706;-64
2021/12/30 08:48:00;;;;;;;0.10;0.10;;;;;;;;;;5003875;28;20721;-63
2021/12/30 08:50:27;;;;;;;0.20;0.20;;;;;;;;;;5005361;28;20237;-63
2021/12/30 08:52:54;;;;;;;0.10;0.10;;;;;;;;;;5003226;28;21899;-63
2021/12/30 08:55:21;;;;;;;0.10;0.10;;;;;;;;;;5003876;28;20216;-63
2021/12/30 08:57:50;;;;;;;0.40;0.20;;;;;;;;;;5004161;28;20204;-63
2021/12/30 09:00:19;;;;;;;0.30;0.30;;;;;;;;;;5005323;28;20212;-64
2021/12/30 09:02:46;;;;;;;0.30;0.30;;;;;;;;;;5003543;28;20205;-63
2021/12/30 09:05:13;;;;;;;0.10;0.10;;;;;;;;;;5003618;28;20260;-64
2021/12/30 09:07:40;;;;;;;0.20;0.20;;;;;;;;;;5002414;28;20233;-63
2021/12/30 09:10:08;;;;;;;0.10;0.10;;;;;;;;;;5002485;28;20216;-63
2021/12/30 09:12:36;;;;;;;0.90;0.20;;;;;;;;;;5003050;28;20204;-64
2021/12/30 09:15:05;;;;;;;1.60;0.20;;;;;;;;;;5002737;28;20216;-63
2021/12/30 09:17:32;;;;;;;0.30;0.30;;;;;;;;;;5002413;28;20257;-63
2021/12/30 09:19:59;;;;;;;0.20;0.20;;;;;;;;;;5001720;28;20209;-64
2021/12/30 09:22:26;;;;;;;0.10;0.10;;;;;;;;;;5003694;28;20220;-63
2021/12/30 09:24:53;;;;;;;0.20;0.20;;;;;;;;;;5000691;28;20648;-63
2021/12/30 09:27:20;;;;;;;0.83;0.10;;;;;;;;;;5003773;28;20221;-63
2021/12/30 09:29:47;;;;;;;0.20;0.20;;;;;;;;;;5001068;28;20668;-64
2021/12/30 09:32:15;;;;;;;0.50;0.33;;;;;;;;;;5004951;28;20209;-62
2021/12/30 09:34:42;;;;;;;0.20;0.20;;;;;;;;;;5007439;28;20204;-64
2021/12/30 09:37:10;;;;;;;0.03;0.03;;;;;;;;;;4989361;28;20249;-66
2021/12/30 09:39:37;;;;;;;0.13;0.10;;;;;;;;;;5005908;28;20201;-65
2021/12/30 09:42:05;;;;;;;1.17;0.38;;;;;;;;;;5008412;28;20217;-63
2021/12/30 09:44:32;;;;;;;0.60;0.60;;;;;;;;;;5008483;28;20209;-65
2021/12/30 09:46:59;;;;;;;0.17;0.17;;;;;;;;;;5008529;28;20339;-65
2021/12/30 09:49:28;;;;;;;0.10;0.10;;;;;;;;;;5006999;28;20756;-65
2021/12/30 09:51:55;;;;;;;0.30;0.30;;;;;;;;;;5008646;28;20244;-66
2021/12/30 09:54:23;;;;;;;0.20;0.20;;;;;;;;;;5007589;28;20283;-65
2021/12/30 09:56:50;;;;;;;0.10;0.10;;;;;;;;;;5002692;28;20368;-64
2021/12/30 09:59:18;;;;;;;0.10;0.10;;;;;;;;;;4989266;28;20218;-65
2021/12/30 10:01:45;;;;;;;0.20;0.20;;;;;;;;;;4989283;28;20218;-65
2021/12/30 10:04:13;;;;;;;5.78;1.00;;;;;;;;;;4989623;28;20213;-65
2021/12/30 10:06:44;;;;;;;1.50;0.30;;;;;;;;;;4988494;28;20692;-65
2021/12/30 10:09:13;;;;;;;0.35;0.35;;;;;;;;;;5003475;28;20235;-64
2021/12/30 10:11:47;;;;;;;0.85;0.63;;;;;;;;;;5003271;28;20296;-65
2021/12/30 10:14:26;;;;;;;0.40;0.40;;;;;;;;;;5007369;28;20212;-65
2021/12/30 10:16:53;;;;;;;0.30;0.30;;;;;;;;;;4996706;28;20282;-66
2021/12/30 10:19:29;;;;;;;0.20;0.20;;;;;;;;;;4990513;28;20212;-65
2021/12/30 10:22:14;;;;;;;3.17;0.20;;;;;;;;;;4991442;28;20210;-65
2021/12/30 10:24:43;;;;;;;0.10;0.10;;;;;;;;;;5005144;28;20209;-65
2021/12/30 10:27:10;;;;;;;0.10;0.10;;;;;;;;;;5006716;28;20668;-66
2021/12/30 10:29:41;;;;;;;1.08;0.10;;;;;;;;;;5006880;28;20671;-65
2021/12/30 10:32:14;;;;;;;0.03;0.03;;;;;;;;;;5006433;28;20213;-66
2021/12/30 10:35:02;;;;;;;0.10;0.10;;;;;;;;;;5006890;28;20303;-65
2021/12/30 10:37:29;;;;;;;0.10;0.10;;;;;;;;;;5007229;28;20216;-65
2021/12/30 10:39:57;;;;;;;0.10;0.10;;;;;;;;;;5007578;28;20698;-65
2021/12/30 10:42:27;;;;;;;0.30;0.30;;;;;;;;;;5007512;28;20217;-65
2021/12/30 10:44:55;;;;;;;0.10;0.10;;;;;;;;;;5007477;28;20243;-65
2021/12/30 10:47:23;;;;;;;0.08;0.08;;;;;;;;;;5007112;28;20221;-66
2021/12/30 10:49:57;;;;;;;0.10;0.10;;;;;;;;;;5006841;28;20241;-66
2021/12/30 10:52:24;;;;;;;0.90;0.10;;;;;;;;;;5007403;28;20311;-66
2021/12/30 10:54:52;;;;;;;0.13;0.13;;;;;;;;;;5006980;28;20247;-66
2021/12/30 10:57:20;;;;;;;0.38;0.20;;;;;;;;;;5007071;28;20216;-66
2021/12/30 10:59:49;;;;;;;0.17;0.17;;;;;;;;;;5007419;28;20216;-66
2021/12/30 11:02:17;;;;;;;0.10;0.10;;;;;;;;;;5007381;28;20271;-65
2021/12/30 11:04:46;;;;;;;0.10;0.10;;;;;;;;;;5007227;28;20283;-66
2021/12/30 11:07:15;;;;;;;0.10;0.10;;;;;;;;;;5007376;28;20263;-66
2021/12/30 11:09:47;;;;;;;0.20;0.20;;;;;;;;;;5007022;28;20209;-65
2021/12/30 11:12:14;;;;;;;0.10;0.10;;;;;;;;;;5007412;28;20316;-66
2021/12/30 11:14:43;;;;;;;0.10;0.10;;;;;;;;;;5007080;28;20205;-66
2021/12/30 11:17:14;;;;;;;0.00;0.00;;;;;;;;;;5007181;28;20219;-66
2021/12/30 11:19:42;;;;;;;0.10;0.10;;;;;;;;;;5006924;28;20213;-66
2021/12/30 11:22:14;;;;;;;0.10;0.10;;;;;;;;;;5007175;28;20243;-67
2021/12/30 11:24:41;;;;;;;0.00;0.00;;;;;;;;;;5006947;28;20217;-67
2021/12/30 11:27:10;;;;;;;0.13;0.13;;;;;;;;;;5007120;28;20244;-67
2021/12/30 11:29:38;;;;;;;0.30;0.30;;;;;;;;;;5008196;28;20686;-67
2021/12/30 11:32:08;;;;;;;0.20;0.20;;;;;;;;;;5010531;28;20212;-66
2021/12/30 11:34:35;;;;;;;0.20;0.20;;;;;;;;;;5010667;28;20450;-66
2021/12/30 11:37:02;;;;;;;1.75;0.30;;;;;;;;;;5010731;28;20209;-66
2021/12/30 11:39:30;;;;;;;0.20;0.20;;;;;;;;;;5010269;28;20613;-66
2021/12/30 11:42:00;;;;;;;0.30;0.30;;;;;;;;;;5010765;28;20243;-66
2021/12/30 11:44:41;;;;;;;0.32;0.32;;;;;;;;;;5010701;28;20213;-66
2021/12/30 11:47:10;;;;;;;0.43;0.43;;;;;;;;;;5010355;28;20228;-66
2021/12/30 11:49:54;;;;;;;0.40;0.40;;;;;;;;;;5009839;28;20707;-66
2021/12/30 11:52:39;;;;;;;0.50;0.50;;;;;;;;;;5010304;28;20217;-67
2021/12/30 11:55:27;;;;;;;0.40;0.40;;;;;;;;;;5005969;28;20208;-67
2021/12/30 11:57:54;;;;;;;0.40;0.40;;;;;;;;;;5005819;28;20204;-67
2021/12/30 12:00:36;;;;;;;0.50;0.50;;;;;;;;;;4991132;28;20264;-64
2021/12/30 12:03:24;;;;;;;0.20;0.20;;;;;;;;;;5003171;28;20209;-63
2021/12/30 12:05:53;;;;;;;0.40;0.40;;;;;;;;;;5010194;28;20260;-62
2021/12/30 12:08:20;;;;;;;0.40;0.40;;;;;;;;;;4994124;28;20708;-63
2021/12/30 12:13:55;;;;;;;0.55;0.52;;;;;;;;;;4989993;28;20228;-66
2021/12/30 12:16:37;;;;;;;0.57;0.50;;;;;;;;;;4984677;28;20329;-64
2021/12/30 12:19:06;;;;;;;0.35;0.35;;;;;;;;;;4985810;28;20205;-64
2021/12/30 12:21:44;;;;;;;0.50;0.50;;;;;;;;;;4986185;28;20213;-64
2021/12/30 12:24:27;;;;;;;0.60;0.60;;;;;;;;;;5005278;28;20208;-67
2021/12/30 12:26:55;;;;;;;0.70;0.70;;;;;;;;;;5005581;28;20299;-63
2021/12/30 12:29:26;;;;;;;0.50;0.50;;;;;;;;;;5000348;28;20236;-63
2021/12/30 12:31:54;;;;;;;0.75;0.50;;;;;;;;;;4985844;28;20268;-64
2021/12/30 12:34:34;;;;;;;0.45;0.45;;;;;;;;;;4991779;28;20244;-66
2021/12/30 12:37:01;;;;;;;1.00;1.00;;;;;;;;;;5003308;28;20235;-64
2021/12/30 12:39:35;;;;;;;0.70;0.70;;;;;;;;;;5004255;28;20217;-66
2021/12/30 12:42:02;;;;;;;0.47;0.47;;;;;;;;;;5004068;28;20410;-67
2021/12/30 12:44:29;;;;;;;0.40;0.40;;;;;;;;;;4998053;28;20264;-65
2021/12/30 12:46:59;;;;;;;0.50;0.50;;;;;;;;;;5000982;28;20240;-65
2021/12/30 12:49:44;;;;;;;0.50;0.50;;;;;;;;;;4989336;28;20237;-65
2021/12/30 12:52:11;;;;;;;0.30;0.30;;;;;;;;;;4996958;28;20300;-64
2021/12/30 12:54:39;;;;;;;0.35;0.35;;;;;;;;;;4996596;28;20210;-64
2021/12/30 12:57:07;;;;;;;0.43;0.43;;;;;;;;;;4989017;28;20209;-64
2021/12/30 12:59:35;;;;;;;0.35;0.35;;;;;;;;;;4985938;28;20205;-65
2021/12/30 13:02:02;;;;;;;0.25;0.25;;;;;;;;;;4986980;28;20297;-64
2021/12/30 13:04:29;;;;;;;0.28;0.22;;;;;;;;;;4994561;28;20675;-64
2021/12/30 13:07:00;;;;;;;0.20;0.20;;;;;;;;;;5000680;28;20214;-64
2021/12/30 13:09:27;;;;;;;0.40;0.40;;;;;;;;;;5005533;28;20241;-64
2021/12/30 13:11:55;;;;;;;0.20;0.20;;;;;;;;;;4994544;28;20221;-64
2021/12/30 13:14:22;;;;;;;0.22;0.22;;;;;;;;;;4985921;28;20233;-64
2021/12/30 13:16:54;;;;;;;0.30;0.30;;;;;;;;;;4985673;28;20688;-64
2021/12/30 13:19:21;;;;;;;0.35;0.35;;;;;;;;;;4985965;28;20245;-64
2021/12/30 13:21:53;;;;;;;0.30;0.30;;;;;;;;;;4985758;28;20218;-64
2021/12/30 13:24:38;;;;;;;0.20;0.20;;;;;;;;;;4996479;28;20263;-64
2021/12/30 13:27:06;;;;;;;0.40;0.40;;;;;;;;;;4990677;28;20229;-64
2021/12/30 13:29:35;;;;;;;0.30;0.30;;;;;;;;;;4986853;28;20229;-64
2021/12/30 13:32:04;;;;;;;0.50;0.50;;;;;;;;;;4996177;28;20205;-63
2021/12/30 13:34:32;;;;;;;0.30;0.30;;;;;;;;;;4991791;28;20740;-64
2021/12/30 13:37:09;;;;;;;0.85;0.20;;;;;;;;;;4985028;28;20217;-63
2021/12/30 13:39:38;;;;;;;0.20;0.20;;;;;;;;;;4984767;28;20268;-64
2021/12/30 13:42:05;;;;;;;0.28;0.28;;;;;;;;;;4993978;28;20757;-64
2021/12/30 13:44:39;;;;;;;0.17;0.17;;;;;;;;;;4991318;28;20680;-64
2021/12/30 13:47:20;;;;;;;0.20;0.20;;;;;;;;;;4985384;28;20497;-64
2021/12/30 13:49:48;;;;;;;0.52;0.10;;;;;;;;;;4985044;28;20241;-64
2021/12/30 13:52:15;;;;;;;2.78;0.10;;;;;;;;;;4992287;28;20224;-64
2021/12/30 13:54:43;;;;;;;0.22;0.22;;;;;;;;;;5004922;28;20216;-64
2021/12/30 13:57:10;;;;;;;0.10;0.10;;;;;;;;;;5005031;28;20220;-65
2021/12/30 13:59:42;;;;;;;0.10;0.10;;;;;;;;;;5001302;28;20679;-64
2021/12/30 14:02:13;;;;;;;0.20;0.20;;;;;;;;;;4985400;28;20213;-65
2021/12/30 14:04:41;;;;;;;0.20;0.20;;;;;;;;;;4984547;28;20228;-64
2021/12/30 14:07:08;;;;;;;0.10;0.10;;;;;;;;;;4989592;28;20671;-65
2021/12/30 14:09:35;;;;;;;0.15;0.15;;;;;;;;;;4999626;28;20235;-63
2021/12/30 14:12:11;;;;;;;0.35;0.35;;;;;;;;;;5000492;28;20221;-64
2021/12/30 14:14:39;;;;;;;0.10;0.10;;;;;;;;;;4997127;28;20648;-64
2021/12/30 14:17:08;;;;;;;0.10;0.10;;;;;;;;;;4997649;28;20213;-64
2021/12/30 14:19:36;;;;;;;0.20;0.20;;;;;;;;;;5002694;28;20259;-64
2021/12/30 14:22:04;;;;;;;0.20;0.20;;;;;;;;;;4993453;28;20268;-69
2021/12/30 14:24:33;;;;;;;0.28;0.28;;;;;;;;;;5000613;28;20312;-64
2021/12/30 14:27:01;;;;;;;0.17;0.17;;;;;;;;;;4983506;28;20622;-62
2021/12/30 14:29:33;;;;;;;0.25;0.20;;;;;;;;;;4984489;28;20975;-63
2021/12/30 14:32:03;;;;;;;0.10;0.10;;;;;;;;;;4984681;28;20997;-64
2021/12/30 14:34:33;;;;;;;0.20;0.20;;;;;;;;;;4997945;28;20212;-65
2021/12/30 14:37:01;;;;;;;0.10;0.10;;;;;;;;;;5004017;28;20219;-65
2021/12/30 14:39:32;;;;;;;0.10;0.10;;;;;;;;;;4988736;28;20239;-64
2021/12/30 14:42:11;;;;;;;2.92;0.35;;;;;;;;;;4996264;28;20251;-64
2021/12/30 14:44:40;;;;;;;0.22;0.22;;;;;;;;;;5004083;28;20760;-66
2021/12/30 14:47:12;;;;;;;0.40;0.40;;;;;;;;;;5003978;28;20216;-64
2021/12/30 14:49:39;;;;;;;0.35;0.35;;;;;;;;;;5004134;28;20249;-65
2021/12/30 14:52:21;;;;;;;0.10;0.10;;;;;;;;;;5003697;28;20237;-64
2021/12/30 14:54:49;;;;;;;0.10;0.10;;;;;;;;;;4986675;28;20224;-63